sensor_id;sensor_type;location;lat;lon;timestamp;temperature;humidity
4725;DHT22;2376;53.544;10.226;2023-04-01T00:02:23;13.90;99.90
4725;DHT22;2376;53.544;10.226;2023-04-01T00:04:50;13.90;99.90
4725;DHT22;2376;53.544;10.226;2023-04-01T00:07:17;13.90;99.90
4725;DHT22;2376;53.544;10.226;2023-04-01T00:09:43;13.80;99.90
4725;DHT22;2376;53.544;10.226;2023-04-01T00:12:10;13.80;99.90
4725;DHT22;2376;53.544;10.226;2023-04-01T00:14:37;13.50;99.90
4725;DHT22;2376;53.544;10.226;2023-04-01T00:17:05;13.50;99.90
4725;DHT22;2376;53.544;10.226;2023-04-01T00:19:33;13.40;99.90
4725;DHT22;2376;53.544;10.226;2023-04-01T00:22:00;13.50;99.90
4725;DHT22;2376;53.544;10.226;2023-04-01T00:24:27;13.60;99.90
4725;DHT22;2376;53.544;10.226;2023-04-01T00:26:55;13.70;99.90
4725;DHT22;2376;53.544;10.226;2023-04-01T00:29:21;13.60;99.90
4725;DHT22;2376;53.544;10.226;2023-04-01T00:31:49;13.60;99.90
4725;DHT22;2376;53.544;10.226;2023-04-01T00:34:16;13.70;99.90
4725;DHT22;2376;53.544;10.226;2023-04-01T00:36:44;13.70;99.90
4725;DHT22;2376;53.544;10.226;2023-04-01T00:39:11;13.80;99.90
4725;DHT22;2376;53.544;10.226;2023-04-01T00:41:38;13.80;99.90
4725;DHT22;2376;53.544;10.226;2023-04-01T00:44:15;13.70;99.90
4725;DHT22;2376;53.544;10.226;2023-04-01T00:46:43;13.80;99.90
4725;DHT22;2376;53.544;10.226;2023-04-01T00:49:10;13.70;99.90
4725;DHT22;2376;53.544;10.226;2023-04-01T00:51:37;13.70;99.90
4725;DHT22;2376;53.544;10.226;2023-04-01T00:54:08;13.70;99.90
4725;DHT22;2376;53.544;10.226;2023-04-01T00:56:37;13.60;99.90
4725;DHT22;2376;53.544;10.226;2023-04-01T00:59:08;13.60;99.90
4725;DHT22;2376;53.544;10.226;2023-04-01T01:01:37;13.60;99.90
4725;DHT22;2376;53.544;10.226;2023-04-01T01:04:04;13.50;99.90
4725;DHT22;2376;53.544;10.226;2023-04-01T01:06:40;13.40;99.90
4725;DHT22;2376;53.544;10.226;2023-04-01T01:09:26;13.20;99.90
4725;DHT22;2376;53.544;10.226;2023-04-01T01:12:02;13.30;99.90
4725;DHT22;2376;53.544;10.226;2023-04-01T01:14:40;13.10;99.90
4725;DHT22;2376;53.544;10.226;2023-04-01T01:17:13;13.00;99.90
4725;DHT22;2376;53.544;10.226;2023-04-01T01:19:57;13.00;99.90
4725;DHT22;2376;53.544;10.226;2023-04-01T01:22:44;12.90;99.90
4725;DHT22;2376;53.544;10.226;2023-04-01T01:25:29;12.80;99.90
4725;DHT22;2376;53.544;10.226;2023-04-01T01:28:04;13.00;99.90
4725;DHT22;2376;53.544;10.226;2023-04-01T01:30:42;12.80;99.90
4725;DHT22;2376;53.544;10.226;2023-04-01T01:35:58;12.70;99.90
4725;DHT22;2376;53.544;10.226;2023-04-01T01:38:28;12.90;99.90
4725;DHT22;2376;53.544;10.226;2023-04-01T01:40:57;12.80;99.90
4725;DHT22;2376;53.544;10.226;2023-04-01T01:43:28;12.90;99.90
4725;DHT22;2376;53.544;10.226;2023-04-01T01:45:59;12.90;99.90
4725;DHT22;2376;53.544;10.226;2023-04-01T01:48:27;12.90;99.90
4725;DHT22;2376;53.544;10.226;2023-04-01T01:50:57;13.00;99.90
4725;DHT22;2376;53.544;10.226;2023-04-01T01:53:25;12.90;99.90
4725;DHT22;2376;53.544;10.226;2023-04-01T01:55:52;13.00;99.90
4725;DHT22;2376;53.544;10.226;2023-04-01T01:58:22;13.00;99.90
4725;DHT22;2376;53.544;10.226;2023-04-01T02:00:52;12.80;99.90
4725;DHT22;2376;53.544;10.226;2023-04-01T02:03:21;12.80;99.90
4725;DHT22;2376;53.544;10.226;2023-04-01T02:05:50;12.80;99.90
4725;DHT22;2376;53.544;10.226;2023-04-01T02:08:22;13.00;99.90
4725;DHT22;2376;53.544;10.226;2023-04-01T02:10:55;12.80;99.90
4725;DHT22;2376;53.544;10.226;2023-04-01T02:13:27;12.80;99.90
4725;DHT22;2376;53.544;10.226;2023-04-01T02:15:58;12.80;99.90
4725;DHT22;2376;53.544;10.226;2023-04-01T02:18:28;12.90;99.90
4725;DHT22;2376;53.544;10.226;2023-04-01T02:20:57;13.00;99.90
4725;DHT22;2376;53.544;10.226;2023-04-01T02:23:28;13.00;99.90
4725;DHT22;2376;53.544;10.226;2023-04-01T02:25:55;12.90;99.90
4725;DHT22;2376;53.544;10.226;2023-04-01T02:28:23;12.80;99.90
4725;DHT22;2376;53.544;10.226;2023-04-01T02:30:51;13.00;99.90
4725;DHT22;2376;53.544;10.226;2023-04-01T02:33:19;12.80;99.90
4725;DHT22;2376;53.544;10.226;2023-04-01T02:35:46;12.90;99.90
4725;DHT22;2376;53.544;10.226;2023-04-01T02:38:13;12.70;99.90
4725;DHT22;2376;53.544;10.226;2023-04-01T02:40:49;12.70;99.90
4725;DHT22;2376;53.544;10.226;2023-04-01T02:43:16;12.70;99.90
4725;DHT22;2376;53.544;10.226;2023-04-01T02:45:45;12.70;99.90
4725;DHT22;2376;53.544;10.226;2023-04-01T02:48:12;12.70;99.90
4725;DHT22;2376;53.544;10.226;2023-04-01T02:50:39;12.50;99.90
4725;DHT22;2376;53.544;10.226;2023-04-01T02:53:06;12.60;99.90
4725;DHT22;2376;53.544;10.226;2023-04-01T02:55:33;12.50;99.90
4725;DHT22;2376;53.544;10.226;2023-04-01T02:58:02;12.50;99.90
4725;DHT22;2376;53.544;10.226;2023-04-01T03:00:29;12.50;99.90
4725;DHT22;2376;53.544;10.226;2023-04-01T03:02:56;12.50;99.90
4725;DHT22;2376;53.544;10.226;2023-04-01T03:05:23;12.50;99.90
4725;DHT22;2376;53.544;10.226;2023-04-01T03:07:50;12.60;99.90
4725;DHT22;2376;53.544;10.226;2023-04-01T03:10:17;12.60;99.90
4725;DHT22;2376;53.544;10.226;2023-04-01T03:12:44;12.50;99.90
4725;DHT22;2376;53.544;10.226;2023-04-01T03:15:13;12.50;99.90
4725;DHT22;2376;53.544;10.226;2023-04-01T03:17:41;12.30;99.90
4725;DHT22;2376;53.544;10.226;2023-04-01T03:20:09;12.40;99.90
4725;DHT22;2376;53.544;10.226;2023-04-01T03:22:38;12.40;99.90
4725;DHT22;2376;53.544;10.226;2023-04-01T03:25:06;12.50;99.90
4725;DHT22;2376;53.544;10.226;2023-04-01T03:27:34;12.20;99.90
4725;DHT22;2376;53.544;10.226;2023-04-01T03:30:01;12.20;99.90
4725;DHT22;2376;53.544;10.226;2023-04-01T03:32:29;12.30;99.90
4725;DHT22;2376;53.544;10.226;2023-04-01T03:34:56;12.20;99.90
4725;DHT22;2376;53.544;10.226;2023-04-01T03:37:23;12.30;99.90
4725;DHT22;2376;53.544;10.226;2023-04-01T03:39:51;12.30;99.90
4725;DHT22;2376;53.544;10.226;2023-04-01T03:42:18;12.30;99.90
4725;DHT22;2376;53.544;10.226;2023-04-01T03:44:45;12.20;99.90
4725;DHT22;2376;53.544;10.226;2023-04-01T03:47:11;12.30;99.90
4725;DHT22;2376;53.544;10.226;2023-04-01T03:49:40;12.40;99.90
4725;DHT22;2376;53.544;10.226;2023-04-01T03:52:09;12.40;99.90
4725;DHT22;2376;53.544;10.226;2023-04-01T03:54:36;12.50;99.90
4725;DHT22;2376;53.544;10.226;2023-04-01T03:57:03;12.60;99.90
4725;DHT22;2376;53.544;10.226;2023-04-01T03:59:30;12.50;99.90
4725;DHT22;2376;53.544;10.226;2023-04-01T04:01:57;12.50;99.90
4725;DHT22;2376;53.544;10.226;2023-04-01T04:04:24;12.40;99.90
4725;DHT22;2376;53.544;10.226;2023-04-01T04:06:53;12.30;99.90
4725;DHT22;2376;53.544;10.226;2023-04-01T04:09:20;12.20;99.90
4725;DHT22;2376;53.544;10.226;2023-04-01T04:11:48;12.20;99.90
4725;DHT22;2376;53.544;10.226;2023-04-01T04:14:15;12.40;99.90
4725;DHT22;2376;53.544;10.226;2023-04-01T04:16:42;12.30;99.90
4725;DHT22;2376;53.544;10.226;2023-04-01T04:19:09;12.60;99.90
4725;DHT22;2376;53.544;10.226;2023-04-01T04:21:35;12.60;99.90
4725;DHT22;2376;53.544;10.226;2023-04-01T04:24:04;12.40;99.90
4725;DHT22;2376;53.544;10.226;2023-04-01T04:26:31;12.40;99.90
4725;DHT22;2376;53.544;10.226;2023-04-01T04:28:58;12.30;99.90
4725;DHT22;2376;53.544;10.226;2023-04-01T04:31:25;12.40;99.90
4725;DHT22;2376;53.544;10.226;2023-04-01T04:33:53;12.30;99.90
4725;DHT22;2376;53.544;10.226;2023-04-01T04:36:20;12.30;99.90
4725;DHT22;2376;53.544;10.226;2023-04-01T04:38:48;12.30;99.90
4725;DHT22;2376;53.544;10.226;2023-04-01T04:41:17;12.20;99.90
4725;DHT22;2376;53.544;10.226;2023-04-01T04:43:50;12.10;99.90
4725;DHT22;2376;53.544;10.226;2023-04-01T04:46:18;12.20;99.90
4725;DHT22;2376;53.544;10.226;2023-04-01T04:48:45;12.20;99.90
4725;DHT22;2376;53.544;10.226;2023-04-01T04:51:15;12.20;99.90
4725;DHT22;2376;53.544;10.226;2023-04-01T04:53:43;12.10;99.90
4725;DHT22;2376;53.544;10.226;2023-04-01T04:56:10;12.10;99.90
4725;DHT22;2376;53.544;10.226;2023-04-01T04:58:40;12.00;99.90
4725;DHT22;2376;53.544;10.226;2023-04-01T05:01:09;11.90;99.90
4725;DHT22;2376;53.544;10.226;2023-04-01T05:03:36;12.00;99.90
4725;DHT22;2376;53.544;10.226;2023-04-01T05:06:03;12.00;99.90
4725;DHT22;2376;53.544;10.226;2023-04-01T05:08:30;11.90;99.90
4725;DHT22;2376;53.544;10.226;2023-04-01T05:10:58;11.80;99.90
4725;DHT22;2376;53.544;10.226;2023-04-01T05:13:25;12.00;99.90
4725;DHT22;2376;53.544;10.226;2023-04-01T05:15:53;12.00;99.90
4725;DHT22;2376;53.544;10.226;2023-04-01T05:18:20;11.90;99.90
4725;DHT22;2376;53.544;10.226;2023-04-01T05:20:48;11.70;99.90
4725;DHT22;2376;53.544;10.226;2023-04-01T05:23:15;11.50;99.90
4725;DHT22;2376;53.544;10.226;2023-04-01T05:25:42;11.20;99.90
4725;DHT22;2376;53.544;10.226;2023-04-01T05:28:10;10.80;99.90
4725;DHT22;2376;53.544;10.226;2023-04-01T05:30:39;10.40;99.90
4725;DHT22;2376;53.544;10.226;2023-04-01T05:33:08;10.20;99.90
4725;DHT22;2376;53.544;10.226;2023-04-01T05:35:35;9.90;99.90
4725;DHT22;2376;53.544;10.226;2023-04-01T05:38:02;9.80;99.90
4725;DHT22;2376;53.544;10.226;2023-04-01T05:40:29;9.70;99.90
4725;DHT22;2376;53.544;10.226;2023-04-01T05:42:56;9.60;99.90
4725;DHT22;2376;53.544;10.226;2023-04-01T05:45:23;9.50;99.90
4725;DHT22;2376;53.544;10.226;2023-04-01T05:47:50;9.50;99.90
4725;DHT22;2376;53.544;10.226;2023-04-01T05:50:19;9.30;99.90
4725;DHT22;2376;53.544;10.226;2023-04-01T05:52:46;9.30;99.90
4725;DHT22;2376;53.544;10.226;2023-04-01T05:55:13;9.00;99.90
4725;DHT22;2376;53.544;10.226;2023-04-01T05:57:39;9.00;99.90
4725;DHT22;2376;53.544;10.226;2023-04-01T06:00:07;8.80;99.90
4725;DHT22;2376;53.544;10.226;2023-04-01T06:02:34;8.80;99.90
4725;DHT22;2376;53.544;10.226;2023-04-01T06:05:10;8.70;99.90
4725;DHT22;2376;53.544;10.226;2023-04-01T06:07:39;8.50;99.90
4725;DHT22;2376;53.544;10.226;2023-04-01T06:10:12;8.50;99.90
4725;DHT22;2376;53.544;10.226;2023-04-01T06:12:48;8.50;99.90
4725;DHT22;2376;53.544;10.226;2023-04-01T06:15:25;8.70;99.90
4725;DHT22;2376;53.544;10.226;2023-04-01T06:18:21;8.60;99.90
4725;DHT22;2376;53.544;10.226;2023-04-01T06:20:58;8.60;99.90
4725;DHT22;2376;53.544;10.226;2023-04-01T06:23:47;8.80;99.90
4725;DHT22;2376;53.544;10.226;2023-04-01T06:26:24;8.70;99.90
4725;DHT22;2376;53.544;10.226;2023-04-01T06:32:06;8.30;99.90
4725;DHT22;2376;53.544;10.226;2023-04-01T06:34:57;8.30;99.90
4725;DHT22;2376;53.544;10.226;2023-04-01T06:37:45;8.30;99.90
4725;DHT22;2376;53.544;10.226;2023-04-01T06:40:35;8.10;99.90
4725;DHT22;2376;53.544;10.226;2023-04-01T06:43:13;8.00;99.90
4725;DHT22;2376;53.544;10.226;2023-04-01T06:45:46;7.90;99.90
4725;DHT22;2376;53.544;10.226;2023-04-01T06:48:30;7.80;99.90
4725;DHT22;2376;53.544;10.226;2023-04-01T06:51:02;7.70;99.90
4725;DHT22;2376;53.544;10.226;2023-04-01T06:53:36;7.70;99.90
4725;DHT22;2376;53.544;10.226;2023-04-01T06:56:09;7.70;99.90
4725;DHT22;2376;53.544;10.226;2023-04-01T06:58:40;7.80;99.90
4725;DHT22;2376;53.544;10.226;2023-04-01T07:01:12;7.70;99.90
4725;DHT22;2376;53.544;10.226;2023-04-01T07:03:42;7.80;99.90
4725;DHT22;2376;53.544;10.226;2023-04-01T07:06:14;7.80;99.90
4725;DHT22;2376;53.544;10.226;2023-04-01T07:08:43;7.90;99.90
4725;DHT22;2376;53.544;10.226;2023-04-01T07:11:22;7.70;99.90
4725;DHT22;2376;53.544;10.226;2023-04-01T07:13:54;7.70;99.90
4725;DHT22;2376;53.544;10.226;2023-04-01T07:16:26;7.70;99.90
4725;DHT22;2376;53.544;10.226;2023-04-01T07:19:02;7.60;99.90
4725;DHT22;2376;53.544;10.226;2023-04-01T07:21:32;7.50;99.90
4725;DHT22;2376;53.544;10.226;2023-04-01T07:24:04;7.60;99.90
4725;DHT22;2376;53.544;10.226;2023-04-01T07:26:34;7.60;99.90
4725;DHT22;2376;53.544;10.226;2023-04-01T07:29:00;7.50;99.90
4725;DHT22;2376;53.544;10.226;2023-04-01T07:34:25;7.40;99.90
4725;DHT22;2376;53.544;10.226;2023-04-01T07:36:56;7.30;99.90
4725;DHT22;2376;53.544;10.226;2023-04-01T07:39:34;7.40;99.90
4725;DHT22;2376;53.544;10.226;2023-04-01T07:42:09;7.40;99.90
4725;DHT22;2376;53.544;10.226;2023-04-01T07:44:46;7.40;99.90
4725;DHT22;2376;53.544;10.226;2023-04-01T07:47:38;7.50;99.90
4725;DHT22;2376;53.544;10.226;2023-04-01T07:50:13;7.40;99.90
4725;DHT22;2376;53.544;10.226;2023-04-01T07:52:51;7.40;99.90
4725;DHT22;2376;53.544;10.226;2023-04-01T07:55:24;7.40;99.90
4725;DHT22;2376;53.544;10.226;2023-04-01T07:57:58;7.20;99.90
4725;DHT22;2376;53.544;10.226;2023-04-01T08:00:31;7.00;99.90
4725;DHT22;2376;53.544;10.226;2023-04-01T08:03:13;7.00;99.90
4725;DHT22;2376;53.544;10.226;2023-04-01T08:05:49;6.90;99.90
4725;DHT22;2376;53.544;10.226;2023-04-01T08:08:26;6.90;99.90
4725;DHT22;2376;53.544;10.226;2023-04-01T08:10:59;6.90;99.90
4725;DHT22;2376;53.544;10.226;2023-04-01T08:13:37;6.90;99.90
4725;DHT22;2376;53.544;10.226;2023-04-01T08:16:13;7.00;99.90
4725;DHT22;2376;53.544;10.226;2023-04-01T08:18:50;7.00;99.90
4725;DHT22;2376;53.544;10.226;2023-04-01T08:21:24;7.10;99.90
4725;DHT22;2376;53.544;10.226;2023-04-01T08:23:52;7.30;99.90
4725;DHT22;2376;53.544;10.226;2023-04-01T08:26:28;7.30;99.90
4725;DHT22;2376;53.544;10.226;2023-04-01T08:29:01;7.40;99.90
4725;DHT22;2376;53.544;10.226;2023-04-01T08:31:34;7.30;99.90
4725;DHT22;2376;53.544;10.226;2023-04-01T08:34:04;7.10;99.90
4725;DHT22;2376;53.544;10.226;2023-04-01T08:36:35;7.10;99.90
4725;DHT22;2376;53.544;10.226;2023-04-01T08:39:06;7.10;99.90
4725;DHT22;2376;53.544;10.226;2023-04-01T08:41:59;7.20;99.90
4725;DHT22;2376;53.544;10.226;2023-04-01T08:44:52;7.20;99.90
4725;DHT22;2376;53.544;10.226;2023-04-01T08:47:46;7.20;99.90
4725;DHT22;2376;53.544;10.226;2023-04-01T08:50:48;7.00;99.90
4725;DHT22;2376;53.544;10.226;2023-04-01T08:53:35;7.10;99.90
4725;DHT22;2376;53.544;10.226;2023-04-01T08:56:31;7.20;99.90
4725;DHT22;2376;53.544;10.226;2023-04-01T08:59:26;7.20;99.90
4725;DHT22;2376;53.544;10.226;2023-04-01T09:02:15;7.20;99.90
4725;DHT22;2376;53.544;10.226;2023-04-01T09:05:00;7.20;99.90
4725;DHT22;2376;53.544;10.226;2023-04-01T09:07:39;7.20;99.90
4725;DHT22;2376;53.544;10.226;2023-04-01T09:10:24;7.30;99.90
4725;DHT22;2376;53.544;10.226;2023-04-01T09:13:07;7.30;99.90
4725;DHT22;2376;53.544;10.226;2023-04-01T09:16:04;7.20;99.90
4725;DHT22;2376;53.544;10.226;2023-04-01T09:21:42;7.20;99.90
4725;DHT22;2376;53.544;10.226;2023-04-01T09:24:35;7.30;99.90
4725;DHT22;2376;53.544;10.226;2023-04-01T09:27:13;7.30;99.90
4725;DHT22;2376;53.544;10.226;2023-04-01T09:30:06;7.30;99.90
4725;DHT22;2376;53.544;10.226;2023-04-01T09:35:46;7.20;99.90
4725;DHT22;2376;53.544;10.226;2023-04-01T09:38:27;7.30;99.90
4725;DHT22;2376;53.544;10.226;2023-04-01T09:40:57;7.30;99.90
4725;DHT22;2376;53.544;10.226;2023-04-01T09:43:30;7.30;99.90
4725;DHT22;2376;53.544;10.226;2023-04-01T09:46:09;7.30;99.90
4725;DHT22;2376;53.544;10.226;2023-04-01T09:51:42;7.20;99.90
4725;DHT22;2376;53.544;10.226;2023-04-01T09:54:27;7.30;99.90
4725;DHT22;2376;53.544;10.226;2023-04-01T09:57:22;7.20;99.90
4725;DHT22;2376;53.544;10.226;2023-04-01T10:00:15;7.20;99.90
4725;DHT22;2376;53.544;10.226;2023-04-01T10:03:13;7.20;99.90
4725;DHT22;2376;53.544;10.226;2023-04-01T10:09:28;7.10;99.90
4725;DHT22;2376;53.544;10.226;2023-04-01T10:12:23;7.00;99.90
4725;DHT22;2376;53.544;10.226;2023-04-01T10:15:47;7.00;99.90
4725;DHT22;2376;53.544;10.226;2023-04-01T10:18:41;7.00;99.90
4725;DHT22;2376;53.544;10.226;2023-04-01T10:24:33;7.20;99.90
4725;DHT22;2376;53.544;10.226;2023-04-01T10:27:33;7.20;99.90
4725;DHT22;2376;53.544;10.226;2023-04-01T10:30:29;7.20;99.90
4725;DHT22;2376;53.544;10.226;2023-04-01T10:33:22;7.30;99.90
4725;DHT22;2376;53.544;10.226;2023-04-01T10:36:11;7.20;99.90
4725;DHT22;2376;53.544;10.226;2023-04-01T10:56:54;7.60;99.90
4725;DHT22;2376;53.544;10.226;2023-04-01T11:09:27;7.40;99.90
4725;DHT22;2376;53.544;10.226;2023-04-01T11:21:51;7.30;99.90
4725;DHT22;2376;53.544;10.226;2023-04-01T11:24:47;7.40;99.90
4725;DHT22;2376;53.544;10.226;2023-04-01T11:27:34;7.40;99.90
4725;DHT22;2376;53.544;10.226;2023-04-01T11:30:16;7.50;99.90
4725;DHT22;2376;53.544;10.226;2023-04-01T11:32:52;7.50;99.90
4725;DHT22;2376;53.544;10.226;2023-04-01T11:35:32;7.40;99.90
4725;DHT22;2376;53.544;10.226;2023-04-01T11:38:12;7.30;99.90
4725;DHT22;2376;53.544;10.226;2023-04-01T11:40:47;7.10;99.90
4725;DHT22;2376;53.544;10.226;2023-04-01T11:43:21;7.20;99.90
4725;DHT22;2376;53.544;10.226;2023-04-01T11:45:57;7.10;99.90
4725;DHT22;2376;53.544;10.226;2023-04-01T11:48:38;7.00;99.90
4725;DHT22;2376;53.544;10.226;2023-04-01T11:51:28;7.00;99.90
4725;DHT22;2376;53.544;10.226;2023-04-01T11:54:04;7.10;99.90
4725;DHT22;2376;53.544;10.226;2023-04-01T11:56:44;7.10;99.90
4725;DHT22;2376;53.544;10.226;2023-04-01T11:59:32;7.20;99.90
4725;DHT22;2376;53.544;10.226;2023-04-01T12:02:10;7.20;99.90
4725;DHT22;2376;53.544;10.226;2023-04-01T12:05:20;7.10;99.90
4725;DHT22;2376;53.544;10.226;2023-04-01T12:08:13;7.00;99.90
4725;DHT22;2376;53.544;10.226;2023-04-01T12:10:48;6.90;99.90
4725;DHT22;2376;53.544;10.226;2023-04-01T12:13:28;6.90;99.90
4725;DHT22;2376;53.544;10.226;2023-04-01T12:16:09;7.00;99.90
4725;DHT22;2376;53.544;10.226;2023-04-01T12:18:43;6.90;99.90
4725;DHT22;2376;53.544;10.226;2023-04-01T12:21:23;6.90;99.90
4725;DHT22;2376;53.544;10.226;2023-04-01T12:24:22;7.00;99.90
4725;DHT22;2376;53.544;10.226;2023-04-01T12:27:26;7.20;99.90
4725;DHT22;2376;53.544;10.226;2023-04-01T12:32:49;7.10;99.90
4725;DHT22;2376;53.544;10.226;2023-04-01T12:35:22;6.90;99.90
4725;DHT22;2376;53.544;10.226;2023-04-01T12:38:04;6.90;99.90
4725;DHT22;2376;53.544;10.226;2023-04-01T12:40:49;6.90;99.90
4725;DHT22;2376;53.544;10.226;2023-04-01T12:43:51;6.90;99.90
4725;DHT22;2376;53.544;10.226;2023-04-01T12:46:23;6.70;99.90
4725;DHT22;2376;53.544;10.226;2023-04-01T12:49:20;6.70;99.90
4725;DHT22;2376;53.544;10.226;2023-04-01T12:52:10;6.80;99.90
4725;DHT22;2376;53.544;10.226;2023-04-01T12:58:06;6.80;99.90
4725;DHT22;2376;53.544;10.226;2023-04-01T13:01:02;6.80;99.90
4725;DHT22;2376;53.544;10.226;2023-04-01T13:03:53;6.80;99.90
4725;DHT22;2376;53.544;10.226;2023-04-01T13:06:29;6.60;99.90
4725;DHT22;2376;53.544;10.226;2023-04-01T13:09:07;6.70;99.90
4725;DHT22;2376;53.544;10.226;2023-04-01T13:11:51;6.60;99.90
4725;DHT22;2376;53.544;10.226;2023-04-01T13:14:46;6.60;99.90
4725;DHT22;2376;53.544;10.226;2023-04-01T13:17:21;6.60;99.90
4725;DHT22;2376;53.544;10.226;2023-04-01T13:19:51;6.70;99.90
4725;DHT22;2376;53.544;10.226;2023-04-01T13:22:25;6.70;99.90
4725;DHT22;2376;53.544;10.226;2023-04-01T13:24:59;6.60;99.90
4725;DHT22;2376;53.544;10.226;2023-04-01T13:27:33;6.50;99.90
4725;DHT22;2376;53.544;10.226;2023-04-01T13:30:18;6.40;99.90
4725;DHT22;2376;53.544;10.226;2023-04-01T13:32:57;6.40;99.90
4725;DHT22;2376;53.544;10.226;2023-04-01T13:35:36;6.50;99.90
4725;DHT22;2376;53.544;10.226;2023-04-01T13:41:03;6.50;99.90
4725;DHT22;2376;53.544;10.226;2023-04-01T13:43:36;6.50;99.90
4725;DHT22;2376;53.544;10.226;2023-04-01T13:46:12;6.30;99.90
4725;DHT22;2376;53.544;10.226;2023-04-01T13:52:13;6.60;99.90
4725;DHT22;2376;53.544;10.226;2023-04-01T13:54:57;6.60;99.90
4725;DHT22;2376;53.544;10.226;2023-04-01T13:57:48;6.50;99.90
4725;DHT22;2376;53.544;10.226;2023-04-01T14:00:27;6.50;99.90
4725;DHT22;2376;53.544;10.226;2023-04-01T14:03:19;6.40;99.90
4725;DHT22;2376;53.544;10.226;2023-04-01T14:05:59;6.50;99.90
4725;DHT22;2376;53.544;10.226;2023-04-01T14:08:36;6.50;99.90
4725;DHT22;2376;53.544;10.226;2023-04-01T14:11:13;6.50;99.90
4725;DHT22;2376;53.544;10.226;2023-04-01T14:13:46;6.40;99.90
4725;DHT22;2376;53.544;10.226;2023-04-01T14:16:39;6.50;99.90
4725;DHT22;2376;53.544;10.226;2023-04-01T14:19:17;6.60;99.90
4725;DHT22;2376;53.544;10.226;2023-04-01T14:21:58;6.70;99.90
4725;DHT22;2376;53.544;10.226;2023-04-01T14:24:41;6.70;99.90
4725;DHT22;2376;53.544;10.226;2023-04-01T14:27:29;6.60;99.90
4725;DHT22;2376;53.544;10.226;2023-04-01T14:30:17;6.60;99.90
4725;DHT22;2376;53.544;10.226;2023-04-01T14:32:51;6.60;99.90
4725;DHT22;2376;53.544;10.226;2023-04-01T14:35:35;6.50;99.90
4725;DHT22;2376;53.544;10.226;2023-04-01T14:38:27;6.40;99.90
4725;DHT22;2376;53.544;10.226;2023-04-01T14:41:00;6.40;99.90
4725;DHT22;2376;53.544;10.226;2023-04-01T14:49:36;6.00;99.90
4725;DHT22;2376;53.544;10.226;2023-04-01T14:52:09;6.00;99.90
4725;DHT22;2376;53.544;10.226;2023-04-01T14:54:41;6.00;99.90
4725;DHT22;2376;53.544;10.226;2023-04-01T14:57:11;5.90;99.90
4725;DHT22;2376;53.544;10.226;2023-04-01T14:59:41;6.00;99.90
4725;DHT22;2376;53.544;10.226;2023-04-01T15:02:27;6.00;99.90
4725;DHT22;2376;53.544;10.226;2023-04-01T15:05:07;6.10;99.90
4725;DHT22;2376;53.544;10.226;2023-04-01T15:08:11;6.00;99.90
4725;DHT22;2376;53.544;10.226;2023-04-01T15:11:23;6.20;99.90
4725;DHT22;2376;53.544;10.226;2023-04-01T15:14:03;6.10;99.90
4725;DHT22;2376;53.544;10.226;2023-04-01T15:16:36;6.20;99.90
4725;DHT22;2376;53.544;10.226;2023-04-01T15:19:14;6.20;99.90
4725;DHT22;2376;53.544;10.226;2023-04-01T15:24:44;6.20;99.90
4725;DHT22;2376;53.544;10.226;2023-04-01T15:27:22;6.00;99.90
4725;DHT22;2376;53.544;10.226;2023-04-01T15:32:51;5.90;99.90
4725;DHT22;2376;53.544;10.226;2023-04-01T15:35:31;5.80;99.90
4725;DHT22;2376;53.544;10.226;2023-04-01T15:38:06;5.70;99.90
4725;DHT22;2376;53.544;10.226;2023-04-01T15:40:40;5.70;99.90
4725;DHT22;2376;53.544;10.226;2023-04-01T15:43:20;5.70;99.90
4725;DHT22;2376;53.544;10.226;2023-04-01T15:45:55;5.80;99.90
4725;DHT22;2376;53.544;10.226;2023-04-01T15:48:33;5.80;99.90
4725;DHT22;2376;53.544;10.226;2023-04-01T15:51:12;6.10;99.90
4725;DHT22;2376;53.544;10.226;2023-04-01T15:54:06;6.10;99.90
4725;DHT22;2376;53.544;10.226;2023-04-01T15:56:53;6.00;99.90
4725;DHT22;2376;53.544;10.226;2023-04-01T15:59:58;5.70;99.90
4725;DHT22;2376;53.544;10.226;2023-04-01T16:02:31;5.50;99.90
4725;DHT22;2376;53.544;10.226;2023-04-01T16:05:04;5.50;99.90
4725;DHT22;2376;53.544;10.226;2023-04-01T16:07:47;5.50;99.90
4725;DHT22;2376;53.544;10.226;2023-04-01T16:10:35;5.40;99.90
4725;DHT22;2376;53.544;10.226;2023-04-01T16:13:19;5.30;99.90
4725;DHT22;2376;53.544;10.226;2023-04-01T16:15:55;5.30;99.90
4725;DHT22;2376;53.544;10.226;2023-04-01T16:21:32;5.50;99.90
4725;DHT22;2376;53.544;10.226;2023-04-01T16:24:08;5.50;99.90
4725;DHT22;2376;53.544;10.226;2023-04-01T16:26:45;5.40;99.90
4725;DHT22;2376;53.544;10.226;2023-04-01T16:29:21;5.30;99.90
4725;DHT22;2376;53.544;10.226;2023-04-01T16:31:58;5.20;99.90
4725;DHT22;2376;53.544;10.226;2023-04-01T16:34:31;5.30;99.90
4725;DHT22;2376;53.544;10.226;2023-04-01T16:37:05;5.30;99.90
4725;DHT22;2376;53.544;10.226;2023-04-01T16:39:41;5.20;99.90
4725;DHT22;2376;53.544;10.226;2023-04-01T16:42:28;5.20;99.90
4725;DHT22;2376;53.544;10.226;2023-04-01T16:45:01;5.30;99.90
4725;DHT22;2376;53.544;10.226;2023-04-01T16:47:40;5.10;99.90
4725;DHT22;2376;53.544;10.226;2023-04-01T16:50:14;5.00;99.90
4725;DHT22;2376;53.544;10.226;2023-04-01T16:52:55;5.00;99.90
4725;DHT22;2376;53.544;10.226;2023-04-01T16:55:34;4.90;99.90
4725;DHT22;2376;53.544;10.226;2023-04-01T16:58:02;5.00;99.90
4725;DHT22;2376;53.544;10.226;2023-04-01T17:00:37;5.20;99.90
4725;DHT22;2376;53.544;10.226;2023-04-01T17:03:11;5.10;99.90
4725;DHT22;2376;53.544;10.226;2023-04-01T17:05:50;5.00;99.90
4725;DHT22;2376;53.544;10.226;2023-04-01T17:08:27;4.80;99.90
4725;DHT22;2376;53.544;10.226;2023-04-01T17:11:00;4.80;99.90
4725;DHT22;2376;53.544;10.226;2023-04-01T17:13:34;4.70;99.90
4725;DHT22;2376;53.544;10.226;2023-04-01T17:16:24;4.70;99.90
4725;DHT22;2376;53.544;10.226;2023-04-01T17:19:01;4.70;99.90
4725;DHT22;2376;53.544;10.226;2023-04-01T17:21:45;4.70;99.90
4725;DHT22;2376;53.544;10.226;2023-04-01T17:24:25;4.70;99.90
4725;DHT22;2376;53.544;10.226;2023-04-01T17:27:02;4.80;99.90
4725;DHT22;2376;53.544;10.226;2023-04-01T17:29:34;4.90;99.90
4725;DHT22;2376;53.544;10.226;2023-04-01T17:32:08;5.10;99.90
4725;DHT22;2376;53.544;10.226;2023-04-01T17:34:46;4.90;99.90
4725;DHT22;2376;53.544;10.226;2023-04-01T17:37:28;4.90;99.90
4725;DHT22;2376;53.544;10.226;2023-04-01T17:40:12;4.90;99.90
4725;DHT22;2376;53.544;10.226;2023-04-01T17:42:46;5.00;99.90
4725;DHT22;2376;53.544;10.226;2023-04-01T17:45:22;5.10;99.90
4725;DHT22;2376;53.544;10.226;2023-04-01T17:47:58;4.90;99.90
4725;DHT22;2376;53.544;10.226;2023-04-01T17:50:44;4.90;99.90
4725;DHT22;2376;53.544;10.226;2023-04-01T17:53:19;4.90;99.90
4725;DHT22;2376;53.544;10.226;2023-04-01T17:56:04;4.70;99.90
4725;DHT22;2376;53.544;10.226;2023-04-01T17:58:35;4.70;99.90
4725;DHT22;2376;53.544;10.226;2023-04-01T18:01:19;4.60;99.90
4725;DHT22;2376;53.544;10.226;2023-04-01T18:04:08;4.60;99.90
4725;DHT22;2376;53.544;10.226;2023-04-01T18:06:59;4.60;99.90
4725;DHT22;2376;53.544;10.226;2023-04-01T18:09:39;4.70;99.90
4725;DHT22;2376;53.544;10.226;2023-04-01T18:12:17;4.80;99.90
4725;DHT22;2376;53.544;10.226;2023-04-01T18:14:54;4.80;99.90
4725;DHT22;2376;53.544;10.226;2023-04-01T18:17:41;4.80;99.90
4725;DHT22;2376;53.544;10.226;2023-04-01T18:20:24;4.90;99.90
4725;DHT22;2376;53.544;10.226;2023-04-01T18:22:57;4.80;99.90
4725;DHT22;2376;53.544;10.226;2023-04-01T18:25:30;4.70;99.90